createdAt,value
2019-04-20T00:00:56.188Z,6.31
2019-04-20T00:03:34.715Z,6.27
2019-04-20T00:05:59.321Z,6.20
2019-04-20T00:08:33.178Z,6.15
2019-04-20T00:11:07.931Z,6.14
2019-04-20T00:13:45.304Z,6.09
2019-04-20T00:16:08.316Z,5.96
2019-04-20T00:18:46.809Z,5.85
2019-04-20T00:21:29.314Z,5.78
2019-04-20T00:24:12.940Z,5.80
2019-04-20T00:27:04.737Z,5.80
2019-04-20T00:29:26.614Z,5.79
2019-04-20T00:31:51.010Z,5.65
2019-04-20T00:34:18.432Z,5.82
2019-04-20T00:36:45.236Z,5.83
2019-04-20T00:39:17.170Z,5.82
2019-04-20T00:41:53.749Z,5.81
2019-04-20T00:44:25.171Z,5.74
2019-04-20T00:47:04.767Z,5.63
2019-04-20T00:49:38.866Z,5.56
2019-04-20T00:52:24.218Z,5.48
2019-04-20T00:54:28.440Z,5.51
2019-04-20T00:57:12.106Z,5.52
2019-04-20T00:59:51.768Z,5.50
2019-04-20T01:02:17.428Z,5.45
2019-04-20T01:04:55.041Z,5.48
2019-04-20T01:07:40.780Z,5.24
2019-04-20T01:10:09.153Z,5.13
2019-04-20T01:12:41.013Z,5.24
2019-04-20T01:15:23.648Z,5.25
2019-04-20T01:17:43.567Z,5.18
2019-04-20T01:20:14.018Z,5.21
2019-04-20T01:22:52.252Z,5.10
2019-04-20T01:25:23.053Z,5.08
2019-04-20T01:28:17.660Z,5.07
2019-04-20T01:30:28.419Z,5.07
2019-04-20T01:33:08.879Z,5.00
2019-04-20T01:35:44.148Z,4.98
2019-04-20T01:38:16.392Z,4.98
2019-04-20T01:40:29.523Z,4.87
2019-04-20T01:43:01.512Z,4.89
2019-04-20T01:45:37.271Z,4.83
2019-04-20T01:48:05.170Z,4.77
2019-04-20T01:50:38.381Z,4.76
2019-04-20T01:53:18.983Z,4.72
2019-04-20T01:55:55.689Z,4.72
2019-04-20T01:58:40.393Z,4.69
2019-04-20T02:01:17.845Z,4.61
2019-04-20T02:03:58.709Z,4.62
2019-04-20T02:06:30.450Z,4.61
2019-04-20T02:09:07.910Z,4.63
2019-04-20T02:11:38.399Z,4.61
2019-04-20T02:14:09.949Z,4.56
2019-04-20T02:16:45.218Z,4.56
2019-04-20T02:19:26.522Z,4.53
2019-04-20T02:21:55.906Z,4.48
2019-04-20T02:24:15.858Z,4.46
2019-04-20T02:26:47.232Z,4.44
2019-04-20T02:29:40.651Z,4.40
2019-04-20T02:35:18.303Z,4.22
2019-04-20T02:38:32.033Z,4.24
2019-04-20T02:40:52.651Z,4.21
2019-04-20T02:45:52.772Z,4.15
2019-04-20T02:48:25.289Z,4.15
2019-04-20T02:51:01.087Z,4.15
2019-04-20T02:53:30.164Z,4.12
2019-04-20T02:58:31.154Z,4.03
2019-04-20T03:00:52.298Z,4.07
2019-04-20T03:03:16.023Z,4.06
2019-04-20T03:05:45.449Z,3.97
2019-04-20T03:08:22.386Z,3.90
2019-04-20T03:11:09.015Z,3.92
2019-04-20T03:13:32.334Z,3.93
2019-04-20T03:16:08.675Z,3.98
2019-04-20T03:18:37.391Z,4.01
2019-04-20T03:21:12.725Z,3.94
2019-04-20T03:23:47.995Z,3.97
2019-04-20T03:26:19.289Z,3.90
2019-04-20T03:29:01.774Z,3.80
2019-04-20T03:36:53.108Z,3.71
2019-04-20T03:39:17.873Z,3.64
2019-04-20T03:41:40.498Z,3.58
2019-04-20T03:44:13.702Z,3.55
2019-04-20T03:46:47.679Z,3.48
2019-04-20T03:49:38.330Z,3.44
2019-04-20T03:52:24.582Z,3.42
2019-04-20T03:55:21.058Z,3.40
2019-04-20T03:58:19.716Z,3.43
2019-04-20T04:01:22.648Z,3.42
2019-04-20T04:04:16.831Z,3.39
2019-04-20T04:06:37.385Z,3.46
2019-04-20T04:09:14.634Z,3.47
2019-04-20T04:11:43.337Z,3.42
2019-04-20T04:14:03.051Z,3.31
2019-04-20T04:16:41.836Z,3.30
2019-04-20T04:19:12.714Z,3.30
2019-04-20T04:21:53.849Z,3.31
2019-04-20T04:24:23.543Z,3.32
2019-04-20T04:26:57.602Z,3.28
2019-04-20T04:29:36.632Z,3.22
2019-04-20T04:32:15.477Z,3.23
2019-04-20T04:34:39.120Z,3.23
2019-04-20T04:37:10.641Z,3.31
2019-04-20T04:39:42.822Z,3.37
2019-04-20T04:42:20.717Z,3.25
2019-04-20T04:44:39.953Z,3.30
2019-04-20T04:47:03.295Z,3.43
2019-04-20T04:49:35.264Z,3.47
2019-04-20T04:52:07.977Z,3.71
2019-04-20T04:54:44.500Z,4.22
2019-04-20T04:57:07.424Z,4.76
2019-04-20T04:59:38.436Z,5.08
2019-04-20T05:02:09.689Z,5.23
2019-04-20T05:05:23.786Z,5.70
2019-04-20T05:07:52.047Z,5.80
2019-04-20T05:10:10.012Z,6.01
2019-04-20T05:12:40.996Z,6.22
2019-04-20T05:15:22.608Z,6.40
2019-04-20T05:18:07.217Z,6.75
2019-04-20T05:20:41.576Z,7.15
2019-04-20T05:23:19.352Z,7.54
2019-04-20T05:26:08.325Z,7.66
2019-04-20T05:28:27.882Z,7.84
2019-04-20T05:30:53.767Z,8.55
2019-04-20T05:33:30.216Z,8.92
2019-04-20T05:36:12.324Z,9.02
2019-04-20T05:38:47.068Z,9.47
2019-04-20T05:41:17.419Z,9.74
2019-04-20T05:44:09.970Z,9.49
2019-04-20T05:46:48.157Z,9.02
2019-04-20T05:49:23.336Z,9.37
2019-04-20T05:51:48.619Z,9.61
2019-04-20T05:54:19.047Z,10.07
2019-04-20T05:56:52.378Z,10.58
2019-04-20T05:59:23.437Z,10.84
2019-04-20T06:04:46.935Z,11.26
2019-04-20T06:07:06.050Z,11.88
2019-04-20T06:09:34.238Z,12.10
2019-04-20T06:12:20.020Z,12.50
2019-04-20T06:14:53.636Z,13.14
2019-04-20T06:17:31.428Z,13.63
2019-04-20T06:20:06.143Z,14.09
2019-04-20T06:22:40.778Z,14.37
2019-04-20T06:25:42.269Z,14.70
2019-04-20T06:27:55.395Z,14.89
2019-04-20T06:30:13.691Z,15.60
2019-04-20T06:33:50.254Z,15.94
2019-04-20T06:36:22.200Z,16.40
2019-04-20T06:38:52.477Z,16.95
2019-04-20T06:41:16.115Z,16.99
2019-04-20T06:43:40.747Z,17.49
2019-04-20T06:46:10.350Z,18.04
2019-04-20T06:48:47.818Z,18.25
2019-04-20T06:51:22.387Z,18.70
2019-04-20T06:53:52.664Z,19.16
2019-04-20T06:56:35.374Z,19.44
2019-04-20T06:59:11.751Z,19.43
2019-04-20T07:01:50.392Z,20.22
2019-04-20T07:06:50.762Z,21.04
2019-04-20T07:09:26.245Z,21.19
2019-04-20T07:11:50.649Z,21.86
2019-04-20T07:14:11.332Z,22.23
2019-04-20T07:17:20.534Z,22.58
2019-04-20T07:19:45.502Z,22.93
2019-04-20T07:22:38.907Z,23.41
2019-04-20T07:25:05.999Z,23.91
2019-04-20T07:27:42.937Z,24.45
2019-04-20T07:30:12.693Z,25.07
2019-04-20T07:32:52.557Z,25.18
2019-04-20T07:35:20.093Z,25.46
2019-04-20T07:40:24.519Z,26.98
2019-04-20T07:43:07.693Z,27.20
2019-04-20T07:45:36.466Z,27.45
2019-04-20T07:48:09.394Z,27.96
2019-04-20T07:50:31.785Z,28.34
2019-04-20T07:52:58.653Z,27.88
2019-04-20T07:55:44.565Z,28.39
2019-04-20T07:58:07.625Z,29.30
2019-04-20T08:00:59.755Z,29.54
2019-04-20T08:03:58.738Z,30.01
2019-04-20T08:06:26.415Z,29.62
2019-04-20T08:09:08.293Z,29.11
2019-04-20T08:11:50.323Z,29.26
2019-04-20T08:14:18.238Z,29.21
2019-04-20T08:17:09.144Z,28.56
2019-04-20T08:19:47.204Z,28.83
2019-04-20T08:22:33.964Z,28.97
2019-04-20T08:25:08.302Z,29.43
2019-04-20T08:27:48.813Z,29.96
2019-04-20T08:30:47.080Z,30.47
2019-04-20T08:33:24.574Z,31.31
2019-04-20T08:35:58.499Z,30.84
2019-04-20T08:41:00.498Z,30.48
2019-04-20T08:43:47.380Z,29.75
2019-04-20T08:46:05.573Z,30.65
2019-04-20T08:48:41.813Z,31.88
2019-04-20T08:51:12.243Z,31.80
2019-04-20T08:53:44.634Z,30.83
2019-04-20T08:56:10.958Z,31.58
2019-04-20T08:58:31.493Z,31.46
2019-04-20T09:01:05.439Z,32.21
2019-04-20T09:03:46.215Z,34.17
2019-04-20T09:06:24.935Z,35.48
2019-04-20T09:08:53.189Z,35.20
2019-04-20T09:11:30.944Z,34.88
2019-04-20T09:13:50.311Z,35.54
2019-04-20T09:16:20.782Z,35.45
2019-04-20T09:18:56.940Z,34.09
2019-04-20T09:21:30.789Z,34.47
2019-04-20T09:24:16.227Z,35.17
2019-04-20T09:26:42.303Z,36.92
2019-04-20T09:29:12.546Z,37.59
2019-04-20T09:31:50.248Z,35.37
2019-04-20T09:34:41.887Z,36.18
2019-04-20T09:37:43.351Z,35.98
2019-04-20T09:40:47.071Z,35.40
2019-04-20T09:43:02.631Z,34.71
2019-04-20T09:45:48.144Z,34.81
2019-04-20T09:48:23.268Z,35.85
2019-04-20T09:51:15.436Z,35.21
2019-04-20T09:53:33.551Z,34.29
2019-04-20T09:56:06.625Z,33.82
2019-04-20T09:58:38.118Z,34.99
2019-04-20T10:01:12.412Z,35.31
2019-04-20T10:03:29.115Z,35.04
2019-04-20T10:05:59.526Z,35.37
2019-04-20T10:08:34.021Z,36.50
2019-04-20T10:11:03.543Z,36.06
2019-04-20T10:13:34.369Z,34.65
2019-04-20T10:16:05.879Z,34.36
2019-04-20T10:18:41.354Z,35.23
2019-04-20T10:21:09.681Z,35.96
2019-04-20T10:23:40.737Z,35.13
2019-04-20T10:26:12.287Z,35.67
2019-04-20T10:28:43.843Z,37.10
2019-04-20T10:31:14.754Z,36.99
2019-04-20T10:33:45.941Z,36.69
2019-04-20T10:36:30.737Z,36.15
2019-04-20T10:39:02.323Z,36.04
2019-04-20T10:41:44.621Z,37.26
2019-04-20T10:44:07.051Z,37.10
2019-04-20T10:46:38.774Z,36.99
2019-04-20T10:49:09.694Z,37.07
2019-04-20T10:51:41.815Z,37.80
2019-04-20T10:54:12.212Z,37.07
2019-04-20T10:56:43.536Z,37.98
2019-04-20T10:59:13.926Z,38.07
2019-04-20T11:01:45.572Z,38.31
2019-04-20T11:04:16.704Z,38.47
2019-04-20T11:06:47.029Z,37.96
2019-04-20T11:09:18.506Z,38.46
2019-04-20T11:11:50.303Z,39.57
2019-04-20T11:14:28.036Z,39.29
2019-04-20T11:16:54.124Z,38.43
2019-04-20T11:19:25.263Z,38.06
2019-04-20T11:21:56.630Z,37.08
2019-04-20T11:24:28.099Z,37.44
2019-04-20T11:26:58.651Z,37.62
2019-04-20T11:29:28.736Z,36.67
2019-04-20T11:31:59.456Z,37.21
2019-04-20T11:34:34.003Z,38.45
2019-04-20T11:37:03.305Z,37.93
2019-04-20T11:39:34.949Z,38.11
2019-04-20T11:42:07.663Z,38.28
2019-04-20T11:44:38.276Z,38.10
2019-04-20T11:47:08.685Z,38.07
2019-04-20T11:49:39.685Z,38.06
2019-04-20T11:52:09.987Z,39.17
2019-04-20T11:54:42.249Z,39.04
2019-04-20T11:57:13.297Z,38.91
2019-04-20T11:59:43.683Z,38.88
2019-04-20T12:02:38.217Z,39.01
2019-04-20T12:05:19.832Z,37.21
2019-04-20T12:08:02.870Z,36.35
2019-04-20T12:10:33.282Z,36.23
2019-04-20T12:13:03.818Z,36.89
2019-04-20T12:15:38.618Z,37.35
2019-04-20T12:18:09.507Z,38.99
2019-04-20T12:20:41.027Z,38.47
2019-04-20T12:23:12.569Z,36.89
2019-04-20T12:25:44.626Z,37.43
2019-04-20T12:28:15.753Z,38.10
2019-04-20T12:30:46.116Z,38.79
2019-04-20T12:33:17.784Z,38.34
2019-04-20T12:35:48.175Z,38.14
2019-04-20T12:38:19.102Z,38.91
2019-04-20T12:40:50.331Z,39.74
2019-04-20T12:43:23.693Z,39.04
2019-04-20T12:45:54.102Z,39.47
2019-04-20T12:48:25.685Z,40.14
2019-04-20T12:50:57.551Z,39.80
2019-04-20T12:53:28.601Z,39.26
2019-04-20T12:56:00.050Z,41.07
2019-04-20T12:58:32.532Z,40.89
2019-04-20T13:01:04.518Z,38.00
2019-04-20T13:03:37.332Z,37.39
2019-04-20T13:06:09.936Z,38.33
2019-04-20T13:08:45.122Z,38.89
2019-04-20T13:11:24.630Z,39.99
2019-04-20T13:14:34.622Z,40.98
2019-04-20T13:17:06.221Z,39.67
2019-04-20T13:19:37.402Z,38.73
2019-04-20T13:22:07.746Z,39.49
2019-04-20T13:24:39.109Z,37.65
2019-04-20T13:27:10.911Z,37.07
2019-04-20T13:29:42.797Z,38.57
2019-04-20T13:32:14.110Z,39.00
2019-04-20T13:34:44.956Z,39.06
2019-04-20T13:37:18.249Z,39.47
2019-04-20T13:39:48.997Z,37.41
2019-04-20T13:42:24.733Z,36.49
2019-04-20T13:44:52.816Z,36.99
2019-04-20T13:47:23.417Z,36.15
2019-04-20T13:49:54.884Z,35.33
2019-04-20T13:52:26.743Z,34.22
2019-04-20T13:54:58.084Z,33.85
2019-04-20T13:57:35.687Z,34.54
2019-04-20T14:00:26.198Z,33.60
2019-04-20T14:03:02.983Z,33.99
2019-04-20T14:05:35.392Z,34.31
2019-04-20T14:08:07.552Z,33.40
2019-04-20T14:10:38.079Z,33.91
2019-04-20T14:13:13.660Z,33.34
2019-04-20T14:15:40.943Z,32.10
2019-04-20T14:18:11.402Z,31.48
2019-04-20T14:20:42.918Z,29.43
2019-04-20T14:23:13.337Z,28.48
2019-04-20T14:25:45.105Z,27.60
2019-04-20T14:28:15.714Z,27.74
2019-04-20T14:30:46.166Z,26.99
2019-04-20T14:33:16.883Z,26.91
2019-04-20T14:35:48.377Z,26.38
2019-04-20T14:38:20.132Z,26.09
2019-04-20T14:40:50.743Z,25.90
2019-04-20T14:43:22.324Z,25.70
2019-04-20T14:45:52.603Z,25.62
2019-04-20T14:48:22.898Z,25.11
2019-04-20T14:50:53.872Z,24.86
2019-04-20T14:53:25.399Z,25.10
2019-04-20T14:55:55.893Z,24.88
2019-04-20T14:58:45.217Z,24.89
2019-04-20T15:01:30.666Z,24.89
2019-04-20T15:04:06.859Z,24.73
2019-04-20T15:06:36.763Z,24.60
2019-04-20T15:09:10.750Z,24.44
2019-04-20T15:11:44.250Z,24.33
2019-04-20T15:14:14.643Z,24.65
2019-04-20T15:16:46.753Z,24.61
2019-04-20T15:19:49.659Z,24.33
2019-04-20T15:22:39.213Z,24.41
2019-04-20T15:25:11.707Z,24.23
2019-04-20T15:27:46.250Z,24.22
2019-04-20T15:30:18.384Z,24.01
2019-04-20T15:32:49.229Z,24.00
2019-04-20T15:35:21.529Z,24.00
2019-04-20T15:37:52.985Z,23.79
2019-04-20T15:40:23.594Z,23.85
2019-04-20T15:43:02.335Z,23.90
2019-04-20T15:45:27.253Z,23.78
2019-04-20T15:47:58.109Z,23.64
2019-04-20T15:50:29.997Z,23.61
2019-04-20T15:53:02.179Z,23.62
2019-04-20T15:55:38.019Z,23.33
2019-04-20T15:58:06.753Z,23.44
2019-04-20T16:00:38.344Z,23.20
2019-04-20T16:03:27.699Z,23.23
2019-04-20T16:06:01.270Z,23.26
2019-04-20T16:08:34.631Z,23.29
2019-04-20T16:11:06.999Z,23.30
2019-04-20T16:13:41.976Z,23.28
2019-04-20T16:16:12.155Z,23.08
2019-04-20T16:18:43.408Z,23.00
2019-04-20T16:21:20.191Z,23.00
2019-04-20T16:23:54.707Z,22.89
2019-04-20T16:26:39.798Z,22.79
2019-04-20T16:29:11.502Z,22.79
2019-04-20T16:31:50.795Z,22.81
2019-04-20T16:34:23.418Z,22.68
2019-04-20T16:36:56.519Z,22.67
2019-04-20T16:39:28.176Z,22.80
2019-04-20T16:42:00.323Z,22.64
2019-04-20T16:44:33.341Z,22.53
2019-04-20T16:47:04.160Z,22.44
2019-04-20T16:49:34.845Z,22.34
2019-04-20T16:52:05.554Z,22.33
2019-04-20T16:54:35.760Z,22.18
2019-04-20T16:57:08.766Z,22.18
2019-04-20T16:59:40.149Z,22.08
2019-04-20T17:02:12.943Z,22.09
2019-04-20T17:04:42.880Z,22.05
2019-04-20T17:07:26.850Z,21.97
2019-04-20T17:09:58.005Z,21.97
2019-04-20T17:12:28.448Z,21.89
2019-04-20T17:14:58.680Z,21.81
2019-04-20T17:17:29.465Z,21.70
2019-04-20T17:20:00.067Z,21.62
2019-04-20T17:22:31.452Z,21.46
2019-04-20T17:25:02.100Z,21.43
2019-04-20T17:28:07.211Z,21.24
2019-04-20T17:30:59.280Z,21.16
2019-04-20T17:33:59.117Z,20.99
2019-04-20T17:36:25.135Z,20.94
2019-04-20T17:38:54.950Z,20.64
2019-04-20T17:41:47.441Z,20.44
2019-04-20T17:44:17.634Z,20.17
2019-04-20T17:46:43.636Z,19.92
2019-04-20T17:49:15.866Z,19.71
2019-04-20T17:51:59.137Z,19.49
2019-04-20T17:54:19.875Z,19.36
2019-04-20T17:56:50.422Z,19.13
2019-04-20T17:59:22.067Z,18.78
2019-04-20T18:02:26.627Z,18.63
2019-04-20T18:05:22.020Z,18.40
2019-04-20T18:07:46.568Z,18.22
2019-04-20T18:10:22.488Z,18.05
2019-04-20T18:12:42.385Z,17.94
2019-04-20T18:15:29.429Z,17.82
2019-04-20T18:18:25.670Z,17.66
2019-04-20T18:21:03.778Z,17.49
2019-04-20T18:23:39.928Z,17.38
2019-04-20T18:26:27.704Z,17.15
2019-04-20T18:29:03.681Z,16.99
2019-04-20T18:31:39.585Z,16.85
2019-04-20T18:34:18.411Z,16.63
2019-04-20T18:36:48.277Z,16.35
2019-04-20T18:39:27.610Z,16.09
2019-04-20T18:41:57.052Z,15.94
2019-04-20T18:44:30.426Z,15.87
2019-04-20T18:47:16.760Z,15.74
2019-04-20T18:49:38.768Z,15.60
2019-04-20T18:51:59.704Z,15.37
2019-04-20T18:54:36.738Z,15.31
2019-04-20T18:57:03.609Z,15.03
2019-04-20T18:59:40.672Z,14.80
2019-04-20T19:02:14.939Z,14.67
2019-04-20T19:04:39.740Z,14.49
2019-04-20T19:07:10.307Z,14.53
2019-04-20T19:09:44.907Z,14.29
2019-04-20T19:12:16.556Z,14.05
2019-04-20T19:15:13.467Z,13.91
2019-04-20T19:18:04.312Z,13.87
2019-04-20T19:20:33.071Z,13.68
2019-04-20T19:23:04.130Z,13.42
2019-04-20T19:25:37.507Z,13.37
2019-04-20T19:28:07.523Z,13.31
2019-04-20T19:30:47.040Z,13.10
2019-04-20T19:33:27.640Z,12.95
2019-04-20T19:35:53.115Z,12.78
2019-04-20T19:38:22.058Z,12.56
2019-04-20T19:40:56.530Z,12.31
2019-04-20T19:43:30.541Z,12.17
2019-04-20T19:46:30.978Z,12.12
2019-04-20T19:48:39.387Z,12.01
2019-04-20T19:51:25.484Z,11.89
2019-04-20T19:53:54.498Z,11.81
2019-04-20T19:56:17.072Z,11.70
2019-04-20T19:58:53.417Z,11.60
2019-04-20T20:01:09.393Z,11.52
2019-04-20T20:03:39.786Z,11.49
2019-04-20T20:06:22.603Z,11.33
2019-04-20T20:08:50.316Z,11.35
2019-04-20T20:11:21.714Z,11.28
2019-04-20T20:13:52.181Z,11.08
2019-04-20T20:16:28.551Z,10.96
2019-04-20T20:19:04.100Z,11.02
2019-04-20T20:21:40.470Z,10.78
2019-04-20T20:23:56.418Z,10.71
2019-04-20T20:26:33.548Z,10.64
2019-04-20T20:29:09.285Z,10.49
2019-04-20T20:31:48.576Z,10.38
2019-04-20T20:34:14.310Z,10.26
2019-04-20T20:36:43.752Z,10.29
2019-04-20T20:39:19.836Z,10.07
2019-04-20T20:41:59.016Z,9.99
2019-04-20T20:44:28.533Z,9.93
2019-04-20T20:46:59.163Z,9.91
2019-04-20T20:49:38.612Z,9.97
2019-04-20T20:52:12.113Z,9.80
2019-04-20T20:54:43.630Z,9.75
2019-04-20T20:57:14.553Z,9.60
2019-04-20T20:59:49.637Z,9.48
2019-04-20T21:02:19.743Z,9.51
2019-04-20T21:04:43.789Z,9.34
2019-04-20T21:07:14.077Z,9.29
2019-04-20T21:09:44.305Z,9.34
2019-04-20T21:12:18.087Z,9.18
2019-04-20T21:14:49.045Z,9.18
2019-04-20T21:17:25.176Z,9.15
2019-04-20T21:20:08.442Z,9.03
2019-04-20T21:22:44.591Z,9.05
2019-04-20T21:24:58.905Z,8.99
2019-04-20T21:27:29.817Z,8.84
2019-04-20T21:30:02.152Z,8.74
2019-04-20T21:32:41.702Z,8.66
2019-04-20T21:35:08.691Z,8.64
2019-04-20T21:37:37.151Z,8.59
2019-04-20T21:40:21.342Z,8.52
2019-04-20T21:42:49.560Z,8.52
2019-04-20T21:45:19.558Z,8.53
2019-04-20T21:47:47.047Z,8.50
2019-04-20T21:50:34.915Z,8.38
2019-04-20T21:52:53.480Z,8.24
2019-04-20T21:55:21.903Z,8.17
2019-04-20T21:57:55.437Z,8.20
2019-04-20T22:00:42.553Z,8.09
2019-04-20T22:03:13.300Z,8.00
2019-04-20T22:05:44.291Z,7.96
2019-04-20T22:08:16.440Z,7.76
2019-04-20T22:10:47.075Z,7.64
2019-04-20T22:13:19.372Z,7.61
2019-04-20T22:15:56.758Z,7.65
2019-04-20T22:18:23.527Z,7.54
2019-04-20T22:21:08.577Z,7.50
2019-04-20T22:23:45.013Z,7.40
2019-04-20T22:26:14.299Z,7.38
2019-04-20T22:28:30.442Z,7.41
2019-04-20T22:31:02.122Z,7.44
2019-04-20T22:33:41.147Z,7.32
2019-04-20T22:36:11.395Z,7.18
2019-04-20T22:39:05.094Z,7.18
2019-04-20T22:42:02.411Z,7.17
2019-04-20T22:44:30.561Z,6.99
2019-04-20T22:47:00.524Z,7.08
2019-04-20T22:49:45.763Z,6.95
2019-04-20T22:52:22.273Z,6.84
2019-04-20T22:54:50.357Z,6.87
2019-04-20T22:57:21.579Z,6.66
2019-04-20T22:59:50.550Z,6.51
2019-04-20T23:02:11.816Z,6.50
2019-04-20T23:04:44.599Z,6.46
2019-04-20T23:07:16.825Z,6.38
2019-04-20T23:09:52.900Z,6.39
2019-04-20T23:12:23.331Z,6.39
2019-04-20T23:14:52.299Z,6.40
2019-04-20T23:17:29.641Z,6.35
2019-04-20T23:19:58.220Z,6.26
2019-04-20T23:22:33.857Z,6.21
2019-04-20T23:24:59.449Z,6.17
2019-04-20T23:27:32.117Z,6.18
2019-04-20T23:30:05.563Z,6.11
2019-04-20T23:32:34.168Z,6.12
2019-04-20T23:35:11.253Z,6.06
2019-04-20T23:37:38.525Z,6.01
2019-04-20T23:40:11.309Z,5.84
2019-04-20T23:42:47.934Z,5.83
2019-04-20T23:45:41.083Z,5.74
2019-04-20T23:48:14.274Z,5.67
2019-04-20T23:50:59.666Z,5.62
2019-04-20T23:53:33.950Z,5.60
2019-04-20T23:55:49.624Z,5.54
2019-04-20T23:58:21.155Z,5.48
